X  SluitMETAR luchtvaart weer gegevens      EHGG Eelde

Temperatuur

33°C Temperatuur

18°C Dauwpunt

41% Vochtigheid



Wind

11 KM/U

 7 MPH

 3 M/S

 6 KTS



200°
Zuid Zuid
West
Huidig weer

Helder Helder
Luchtdruk 1015.92 (hPa) - 30 (in)
Zicht 6.2 (mi) - 10 (km)
Vliegveld
Vliegveld code EHGG

Locatie Eelde 20 (km)

Metar:
EHGG 251525Z AUTO 20006KT 160V230 9999 NSC 33/18 Q1016 NOSIG

Tijd: 25-06-2019 17:25